Time;durP1;ratioP1;P1;durP2;ratioP2;P2;SDS_P1;SDS_P2;PMS_P1;PMS_P2;Temp;Humidity;BMP_temperature;BMP_pressure;BME280_temperature;BME280_humidity;BME280_pressure;Samples;Min_cycle;Max_cycle;Signal;HPM_P1;HPM_P2
2023/12/12 00:05:22;;;;;;;0.85;0.75;;;;;;;6.55;100.00;97621.53;15290237;19;20024;-59
2023/12/12 00:10:47;;;;;;;1.10;0.70;;;;;;;6.67;100.00;97625.63;15033591;19;5000700;-60
2023/12/12 00:16:14;;;;;;;0.90;0.57;;;;;;;6.68;100.00;97632.69;15293714;19;20025;-58
2023/12/12 00:21:39;;;;;;;1.13;0.70;;;;;;;6.73;100.00;97642.91;15295148;19;21315;-60
2023/12/12 00:27:03;;;;;;;1.02;0.68;;;;;;;6.81;100.00;97634.97;15292168;19;20017;-60
2023/12/12 00:32:31;;;;;;;1.13;0.63;;;;;;;6.83;100.00;97629.44;15294462;19;20016;-58
2023/12/12 00:37:55;;;;;;;1.17;0.60;;;;;;;6.86;100.00;97629.97;15285114;19;20026;-59
2023/12/12 00:43:20;;;;;;;1.08;0.65;;;;;;;6.88;100.00;97640.53;15288860;19;20757;-57
2023/12/12 00:48:47;;;;;;;2.33;0.70;;;;;;;6.90;100.00;97641.19;15288599;19;20014;-59
2023/12/12 00:54:13;;;;;;;1.58;0.60;;;;;;;6.93;100.00;97657.81;15292452;19;20070;-59
2023/12/12 00:59:37;;;;;;;1.23;0.50;;;;;;;6.95;100.00;97654.97;15293133;19;20549;-58
2023/12/12 01:05:05;;;;;;;1.58;0.60;;;;;;;6.97;100.00;97662.81;15290847;19;20020;-59
2023/12/12 01:10:29;;;;;;;0.60;0.50;;;;;;;7.00;100.00;97651.81;15287031;19;20082;-58
2023/12/12 01:15:54;;;;;;;1.33;0.60;;;;;;;7.00;100.00;97641.09;15289008;19;20953;-59
2023/12/12 01:21:21;;;;;;;1.75;0.65;;;;;;;6.99;100.00;97634.91;15289977;19;20018;-58
2023/12/12 01:26:46;;;;;;;1.42;0.60;;;;;;;6.92;100.00;97645.41;15288070;19;20025;-58
2023/12/12 01:32:10;;;;;;;3.22;0.60;;;;;;;6.92;100.00;97663.28;14990300;19;5001469;-59
2023/12/12 01:37:45;;;;;;;2.45;0.88;;;;;;;6.91;100.00;97665.16;15273540;19;20010;-64
2023/12/12 01:43:09;;;;;;;1.67;0.70;;;;;;;6.96;100.00;97664.69;15280375;19;20019;-64
2023/12/12 01:48:36;;;;;;;1.42;0.70;;;;;;;7.01;100.00;97658.84;15286358;19;20418;-64
2023/12/12 01:54:04;;;;;;;1.55;0.70;;;;;;;7.02;100.00;97650.66;15287152;19;20042;-65
2023/12/12 01:59:31;;;;;;;2.40;0.85;;;;;;;7.09;100.00;97648.19;15287715;19;20077;-64
2023/12/12 02:04:57;;;;;;;1.42;0.73;;;;;;;7.09;100.00;97643.69;15284306;19;20018;-63
2023/12/12 02:10:25;;;;;;;1.98;0.80;;;;;;;7.11;100.00;97643.50;15288524;19;20082;-65
2023/12/12 02:15:50;;;;;;;2.30;0.90;;;;;;;7.12;100.00;97636.28;15282285;19;20011;-64
2023/12/12 02:21:16;;;;;;;1.83;0.80;;;;;;;7.08;100.00;97644.66;15286550;19;20021;-64
2023/12/12 02:26:43;;;;;;;2.03;0.80;;;;;;;7.08;100.00;97649.16;15285342;19;20086;-64
2023/12/12 02:32:08;;;;;;;2.33;0.80;;;;;;;7.09;100.00;97654.38;15283715;19;20014;-64
2023/12/12 02:37:39;;;;;;;1.35;0.75;;;;;;;7.09;100.00;97650.84;15279606;19;20035;-64
2023/12/12 02:43:06;;;;;;;2.10;0.87;;;;;;;7.09;100.00;97650.84;15280280;19;20024;-63
2023/12/12 02:48:31;;;;;;;2.67;0.80;;;;;;;7.12;100.00;97661.25;15277999;19;20873;-64
2023/12/12 02:54:02;;;;;;;2.13;0.88;;;;;;;7.14;100.00;97653.06;15285308;19;20102;-63
2023/12/12 02:59:30;;;;;;;1.70;0.77;;;;;;;7.15;100.00;97649.38;15281200;19;20089;-64
2023/12/12 03:04:58;;;;;;;2.70;0.82;;;;;;;7.16;100.00;97651.91;15277005;19;20050;-65
2023/12/12 03:10:23;;;;;;;1.35;0.60;;;;;;;7.15;100.00;97649.38;15289082;19;20085;-65
2023/12/12 03:15:51;;;;;;;1.65;0.80;;;;;;;7.18;100.00;97638.34;15296895;19;20017;-64
2023/12/12 03:21:15;;;;;;;2.13;0.90;;;;;;;7.18;100.00;97646.38;15293509;19;20027;-64
2023/12/12 03:26:40;;;;;;;1.80;0.90;;;;;;;7.16;100.00;97648.38;15296166;19;20025;-64
2023/12/12 03:32:08;;;;;;;2.30;0.90;;;;;;;7.15;100.00;97646.69;15298034;19;20942;-64
2023/12/12 03:37:33;;;;;;;2.13;0.90;;;;;;;7.15;100.00;97650.22;15294256;19;22109;-64
2023/12/12 03:42:58;;;;;;;2.25;1.00;;;;;;;7.16;100.00;97651.06;15293710;19;20469;-64
2023/12/12 03:48:26;;;;;;;3.03;1.08;;;;;;;7.15;100.00;97658.28;15292582;19;20018;-65
2023/12/12 03:53:50;;;;;;;1.83;1.00;;;;;;;7.09;100.00;97650.84;15290170;19;20953;-55
2023/12/12 03:59:15;;;;;;;3.03;0.90;;;;;;;6.92;100.00;97655.25;15292229;19;20042;-60
2023/12/12 04:04:42;;;;;;;2.72;1.10;;;;;;;6.82;100.00;97665.25;15290599;19;20407;-58
2023/12/12 04:10:07;;;;;;;2.42;1.08;;;;;;;6.73;100.00;97665.19;15294991;19;20486;-59
2023/12/12 04:15:31;;;;;;;3.92;1.15;;;;;;;6.67;100.00;97676.50;15290875;19;20033;-59
2023/12/12 04:20:59;;;;;;;2.95;1.30;;;;;;;6.62;100.00;97681.50;15292066;19;20007;-59
2023/12/12 04:26:23;;;;;;;3.97;1.10;;;;;;;6.60;100.00;97691.50;15288724;19;20021;-59
2023/12/12 04:31:48;;;;;;;3.33;1.30;;;;;;;6.55;100.00;97691.97;15294575;19;20022;-60
2023/12/12 04:37:15;;;;;;;2.17;1.20;;;;;;;6.55;100.00;97701.81;15287469;19;20019;-60
2023/12/12 04:42:42;;;;;;;3.55;1.50;;;;;;;6.52;100.00;97702.16;15290117;19;20028;-58
2023/12/12 04:48:07;;;;;;;2.25;1.30;;;;;;;6.45;100.00;97707.25;15290624;19;20011;-59
2023/12/12 04:53:35;;;;;;;4.65;1.70;;;;;;;6.42;100.00;97708.38;15290218;19;20086;-61
2023/12/12 04:58:59;;;;;;;4.60;2.08;;;;;;;6.44;100.00;97722.47;15287215;19;20493;-62
2023/12/12 05:04:25;;;;;;;4.55;1.63;;;;;;;6.46;100.00;97723.16;15288549;19;20025;-56
2023/12/12 05:09:52;;;;;;;2.38;1.52;;;;;;;6.48;100.00;97729.19;15284857;19;20078;-60
2023/12/12 05:15:18;;;;;;;1.50;1.40;;;;;;;6.48;100.00;97739.03;15284848;19;20479;-56
2023/12/12 05:20:42;;;;;;;2.75;1.70;;;;;;;6.46;100.00;97752.59;15287294;19;20022;-59
2023/12/12 05:26:10;;;;;;;2.45;1.40;;;;;;;6.47;100.00;97748.94;15286272;19;20045;-58
2023/12/12 05:31:34;;;;;;;2.45;1.75;;;;;;;6.44;100.00;97743.03;15290411;19;20094;-58
2023/12/12 05:36:59;;;;;;;5.13;1.90;;;;;;;6.40;100.00;97750.53;15286119;19;20018;-58
2023/12/12 05:42:26;;;;;;;3.33;1.40;;;;;;;6.34;100.00;97751.13;15289302;19;20025;-58
2023/12/12 05:47:51;;;;;;;3.15;1.70;;;;;;;6.29;100.00;97764.94;15283671;19;20015;-56
2023/12/12 05:53:15;;;;;;;5.32;1.77;;;;;;;6.26;100.00;97767.09;15288257;19;20333;-57
2023/12/12 05:58:43;;;;;;;3.13;1.50;;;;;;;6.23;100.00;97773.59;15284110;19;20011;-59
2023/12/12 06:04:08;;;;;;;3.25;1.80;;;;;;;6.20;100.00;97765.84;15286018;19;20021;-58
2023/12/12 06:09:32;;;;;;;2.72;1.70;;;;;;;6.20;100.00;97756.97;15282830;19;20015;-59
2023/12/12 06:14:59;;;;;;;2.78;1.60;;;;;;;6.19;100.00;97757.97;15286609;19;20015;-58
2023/12/12 06:20:25;;;;;;;5.20;1.70;;;;;;;6.18;100.00;97770.50;15287246;19;20014;-60
2023/12/12 06:25:49;;;;;;;3.83;1.80;;;;;;;6.18;100.00;97767.84;15282169;19;20020;-60
2023/12/12 06:31:17;;;;;;;2.15;1.38;;;;;;;6.20;100.00;97773.03;15280911;19;20010;-59
2023/12/12 06:36:42;;;;;;;3.50;1.40;;;;;;;6.20;100.00;97773.03;15284864;19;20018;-59
2023/12/12 06:42:06;;;;;;;2.95;1.48;;;;;;;6.23;100.00;97772.72;15285662;19;20011;-60
2023/12/12 06:47:33;;;;;;;2.72;1.23;;;;;;;6.20;100.00;97767.69;15293983;19;20035;-60
2023/12/12 06:52:58;;;;;;;2.95;1.30;;;;;;;6.20;100.00;97778.38;15301341;19;20018;-60
2023/12/12 06:58:25;;;;;;;3.63;1.38;;;;;;;6.19;100.00;97771.34;15297445;19;20017;-57
2023/12/12 07:03:53;;;;;;;5.35;1.60;;;;;;;6.16;100.00;97773.34;15295008;19;20018;-61
2023/12/12 07:09:18;;;;;;;3.50;1.42;;;;;;;6.15;100.00;97766.31;15295376;19;20362;-59
2023/12/12 07:14:43;;;;;;;3.53;1.42;;;;;;;6.15;100.00;97766.31;15298819;19;20025;-57
2023/12/12 07:20:12;;;;;;;3.00;1.40;;;;;;;6.13;100.00;97772.78;15300361;19;20090;-58
2023/12/12 07:25:37;;;;;;;4.57;1.40;;;;;;;6.10;100.00;97767.75;15294423;19;20360;-60
2023/12/12 07:31:04;;;;;;;3.88;1.30;;;;;;;6.09;100.00;97763.38;15295383;19;20018;-59
2023/12/12 07:36:32;;;;;;;6.93;1.58;;;;;;;6.09;100.00;97766.06;15280663;19;20028;-58
2023/12/12 07:41:56;;;;;;;2.90;1.38;;;;;;;6.11;100.00;97762.25;15292151;19;21013;-52
2023/12/12 07:47:22;;;;;;;5.50;1.50;;;;;;;6.14;100.00;97763.78;15294797;19;20014;-55
2023/12/12 07:52:59;;;;;;;5.35;1.60;;;;;;;6.17;100.00;97758.94;15298263;19;20587;-53
2023/12/12 07:58:24;;;;;;;4.07;1.55;;;;;;;6.20;100.00;97754.31;15293318;19;20015;-57
2023/12/12 08:03:48;;;;;;;3.53;1.63;;;;;;;6.23;100.00;97762.91;15295409;19;20082;-53
2023/12/12 08:09:16;;;;;;;4.03;1.80;;;;;;;6.25;100.00;97771.59;15287625;19;20014;-53
2023/12/12 08:14:40;;;;;;;7.43;1.67;;;;;;;6.27;100.00;97763.44;15296429;19;20015;-55
2023/12/12 08:20:07;;;;;;;5.18;1.60;;;;;;;6.27;100.00;97771.44;15290443;19;20117;-55
2023/12/12 08:25:34;;;;;;;3.90;1.60;;;;;;;6.31;100.00;97775.50;15289700;19;20025;-54
2023/12/12 08:30:59;;;;;;;3.38;1.50;;;;;;;6.35;100.00;97779.56;15294822;19;20398;-54
2023/12/12 08:36:25;;;;;;;5.75;1.65;;;;;;;6.44;100.00;97764.44;15291583;19;20019;-54
2023/12/12 08:41:52;;;;;;;6.13;1.60;;;;;;;6.54;100.00;97753.66;15288638;19;20021;-53
2023/12/12 08:47:17;;;;;;;6.00;1.60;;;;;;;6.62;100.00;97735.84;15289613;19;20479;-57
2023/12/12 08:52:46;;;;;;;5.18;1.38;;;;;;;6.68;100.00;97729.03;15291889;19;20338;-57
2023/12/12 08:58:13;;;;;;;7.03;1.95;;;;;;;6.74;100.00;97725.75;15291070;19;20436;-57
2023/12/12 09:03:38;;;;;;;6.43;1.83;;;;;;;6.77;100.00;97717.41;15289085;19;20736;-53
2023/12/12 09:09:03;;;;;;;5.43;1.80;;;;;;;6.83;100.00;97715.13;15288281;19;20014;-56
2023/12/12 09:14:30;;;;;;;4.63;1.58;;;;;;;6.86;100.00;97714.81;15286757;19;20035;-56
2023/12/12 09:19:55;;;;;;;5.32;1.80;;;;;;;6.93;100.00;97707.81;15287981;19;20018;-57
2023/12/12 09:25:20;;;;;;;7.15;1.73;;;;;;;6.98;100.00;97700.19;15288642;19;20475;-55
2023/12/12 09:30:47;;;;;;;7.90;1.70;;;;;;;7.03;100.00;97705.88;15288700;19;20014;-56
2023/12/12 09:36:14;;;;;;;7.80;1.83;;;;;;;7.08;100.00;97702.72;15288023;19;20017;-56
2023/12/12 09:41:39;;;;;;;6.20;1.58;;;;;;;7.15;100.00;97702.94;15266445;19;20010;-55
2023/12/12 09:47:07;;;;;;;7.20;1.73;;;;;;;7.19;100.00;97694.44;15279299;19;20019;-58
2023/12/12 09:52:32;;;;;;;6.57;1.85;;;;;;;7.27;100.00;97690.97;15288943;19;20025;-57
2023/12/12 09:57:57;;;;;;;8.73;1.80;;;;;;;7.35;100.00;97674.94;15287448;19;20030;-56
2023/12/12 10:03:25;;;;;;;9.43;2.00;;;;;;;7.35;100.00;97664.22;15288457;19;20014;-54
2023/12/12 10:08:50;;;;;;;6.25;1.73;;;;;;;7.30;100.00;97653.16;15285907;19;20011;-54
2023/12/12 10:14:15;;;;;;;7.70;2.20;;;;;;;7.20;100.00;97641.72;15287970;19;20019;-55
2023/12/12 10:19:43;;;;;;;7.72;2.00;;;;;;;7.13;100.00;97630.81;15283368;19;20018;-54
2023/12/12 10:25:14;;;;;;;8.05;1.80;;;;;;;7.02;100.00;97617.69;15301873;19;20018;-56
2023/12/12 10:30:39;;;;;;;7.40;1.80;;;;;;;6.97;100.00;97620.84;15302780;19;20019;-52
2023/12/12 10:36:10;;;;;;;7.18;1.63;;;;;;;6.98;100.00;97622.53;15301624;19;20307;-53
2023/12/12 10:41:37;;;;;;;6.65;1.77;;;;;;;7.07;100.00;97626.91;15304337;19;20370;-56
2023/12/12 10:47:03;;;;;;;8.38;1.85;;;;;;;7.20;100.00;97620.28;15297121;19;20019;-57
2023/12/12 10:52:31;;;;;;;7.82;2.05;;;;;;;7.27;100.00;97610.59;15292409;19;20044;-55
2023/12/12 10:57:59;;;;;;;9.98;1.98;;;;;;;7.26;100.00;97592.84;15297344;19;20029;-54
2023/12/12 11:03:25;;;;;;;7.53;2.00;;;;;;;7.25;100.00;97583.97;15301042;19;20085;-53
2023/12/12 11:08:52;;;;;;;7.95;2.00;;;;;;;7.25;100.00;97589.34;15296739;19;20353;-55
2023/12/12 11:14:19;;;;;;;7.22;1.73;;;;;;;7.31;100.00;97574.47;15300007;19;20014;-55
2023/12/12 11:19:44;;;;;;;6.38;1.70;;;;;;;7.43;100.00;97561.59;15295616;19;20018;-55
2023/12/12 11:25:13;;;;;;;6.53;1.70;;;;;;;7.55;100.00;97565.66;15291271;19;20093;-53
2023/12/12 11:30:40;;;;;;;7.63;2.03;;;;;;;7.71;100.00;97566.69;15298417;19;20024;-56
2023/12/12 11:36:15;;;;;;;4.85;1.45;;;;;;;7.83;100.00;97543.09;15297192;19;20033;-56
2023/12/12 11:41:43;;;;;;;7.82;2.00;;;;;;;7.96;100.00;97530.03;15298259;19;20016;-53
2023/12/12 11:47:07;;;;;;;6.90;2.00;;;;;;;8.05;100.00;97528.19;15294980;19;20073;-52
2023/12/12 11:52:50;;;;;;;7.22;1.85;;;;;;;8.20;100.00;97517.63;15297000;19;20093;-53
2023/12/12 11:58:18;;;;;;;9.20;1.63;;;;;;;8.28;100.00;97523.00;15288612;19;20018;-55
2023/12/12 12:03:43;;;;;;;6.97;1.83;;;;;;;8.38;100.00;97503.19;15293945;19;20045;-56
2023/12/12 12:09:08;;;;;;;7.75;1.70;;;;;;;8.46;100.00;97498.66;15292093;19;20496;-56
2023/12/12 12:14:36;;;;;;;7.15;1.70;;;;;;;8.52;100.00;97485.56;15296087;19;20477;-58
2023/12/12 12:20:05;;;;;;;6.65;1.70;;;;;;;8.59;100.00;97482.03;15291931;19;20102;-57
2023/12/12 12:25:31;;;;;;;6.95;1.70;;;;;;;8.66;100.00;97476.81;15293934;19;20014;-54
2023/12/12 12:31:00;;;;;;;7.13;1.90;;;;;;;8.76;100.00;97466.72;15289995;19;20539;-54
2023/12/12 12:36:25;;;;;;;7.10;1.83;;;;;;;8.93;100.00;97455.91;15292350;19;20341;-55
2023/12/12 12:41:50;;;;;;;4.80;1.58;;;;;;;8.99;100.00;97441.78;15291820;19;20027;-56
2023/12/12 12:47:17;;;;;;;6.10;1.55;;;;;;;9.02;100.00;97440.56;15290356;19;20022;-53
2023/12/12 12:52:42;;;;;;;5.88;1.70;;;;;;;8.99;100.00;97452.50;15291582;19;20014;-53
2023/12/12 12:58:07;;;;;;;6.78;1.80;;;;;;;8.96;100.00;97435.91;15289838;19;20647;-53
2023/12/12 13:03:34;;;;;;;8.23;1.60;;;;;;;8.94;100.00;97436.94;15291170;19;20025;-55
2023/12/12 13:08:59;;;;;;;6.00;1.75;;;;;;;8.89;100.00;97425.84;15288360;19;20351;-53
2023/12/12 13:14:23;;;;;;;6.88;1.90;;;;;;;8.85;100.00;97426.38;15291427;19;20025;-55
2023/12/12 13:20:08;;;;;;;6.32;1.70;;;;;;;8.82;100.00;97416.84;15357699;19;20061;-53
2023/12/12 13:25:34;;;;;;;8.75;1.67;;;;;;;8.81;100.00;97417.03;15362986;19;20105;-51
2023/12/12 13:30:58;;;;;;;7.05;1.98;;;;;;;8.81;100.00;97412.47;15358928;19;21820;-58
2023/12/12 13:36:25;;;;;;;6.95;1.95;;;;;;;8.81;100.00;97408.97;15346344;19;20018;-63
2023/12/12 13:41:51;;;;;;;5.75;1.50;;;;;;;8.82;100.00;97400.72;15352419;19;20020;-63
2023/12/12 13:47:17;;;;;;;6.60;1.98;;;;;;;8.84;100.00;97393.34;15360471;19;20021;-63
2023/12/12 13:52:45;;;;;;;6.15;1.90;;;;;;;8.90;100.00;97383.75;15361095;19;20010;-61
2023/12/12 13:58:10;;;;;;;7.78;1.95;;;;;;;9.11;100.00;97369.69;15356793;19;20422;-62
2023/12/12 14:03:34;;;;;;;6.45;1.83;;;;;;;9.33;100.00;97368.00;15356072;19;21139;-63
2023/12/12 14:09:03;;;;;;;5.72;1.63;;;;;;;9.32;100.00;97358.25;15358070;19;20045;-62
2023/12/12 14:14:27;;;;;;;8.10;1.90;;;;;;;9.19;100.00;97355.34;15360695;19;20097;-63
2023/12/12 14:19:52;;;;;;;8.43;1.88;;;;;;;9.03;100.00;97353.59;15352015;19;20018;-62
2023/12/12 14:25:21;;;;;;;8.73;1.90;;;;;;;8.84;100.00;97358.44;15357128;19;20014;-64
2023/12/12 14:30:46;;;;;;;6.38;1.77;;;;;;;8.66;100.00;97358.69;15303674;19;20014;-63
2023/12/12 14:36:10;;;;;;;6.63;1.75;;;;;;;8.51;100.00;97366.66;15290075;19;20017;-63
2023/12/12 14:41:44;;;;;;;8.75;2.00;;;;;;;8.31;100.00;97361.63;15297396;19;20094;-63
2023/12/12 14:47:09;;;;;;;8.20;2.08;;;;;;;8.11;100.00;97360.38;15296769;19;20014;-63
2023/12/12 14:52:34;;;;;;;7.40;2.30;;;;;;;8.00;100.00;97357.03;15292890;19;20038;-65
2023/12/12 14:58:01;;;;;;;6.68;2.05;;;;;;;7.95;100.00;97361.25;15293479;19;20486;-64
2023/12/12 15:03:27;;;;;;;8.15;1.80;;;;;;;7.93;100.00;97348.03;15290760;19;20025;-66
2023/12/12 15:08:53;;;;;;;9.77;2.10;;;;;;;7.89;100.00;97341.31;15284366;19;20019;-66
2023/12/12 15:14:20;;;;;;;6.20;1.70;;;;;;;7.86;100.00;97330.91;15294156;19;20019;-63
2023/12/12 15:19:45;;;;;;;11.15;2.55;;;;;;;7.78;100.00;97326.41;15291879;19;20015;-64
2023/12/12 15:25:10;;;;;;;9.48;2.40;;;;;;;7.71;100.00;97328.09;15291210;19;20021;-63
2023/12/12 15:30:51;;;;;;;11.70;2.40;;;;;;;7.64;100.00;97316.41;15288873;19;20014;-63
2023/12/12 15:36:23;;;;;;;12.98;2.40;;;;;;;7.58;100.00;97323.28;15289523;19;20098;-64
2023/12/12 15:41:48;;;;;;;8.77;2.30;;;;;;;7.54;100.00;97300.50;15283146;19;20363;-65
2023/12/12 15:47:18;;;;;;;9.65;2.20;;;;;;;7.51;100.00;97295.47;15289087;19;20025;-65
2023/12/12 15:52:43;;;;;;;12.02;2.42;;;;;;;7.51;100.00;97290.09;15291699;19;20486;-63
2023/12/12 15:58:10;;;;;;;7.55;2.25;;;;;;;7.49;100.00;97284.94;15288885;19;20021;-64
2023/12/12 16:03:38;;;;;;;10.40;2.60;;;;;;;7.49;100.00;97284.94;15290721;19;20770;-63
2023/12/12 16:09:05;;;;;;;8.15;2.65;;;;;;;7.50;100.00;97272.34;15286940;19;20015;-64
2023/12/12 16:14:31;;;;;;;8.98;2.50;;;;;;;7.50;100.00;97267.00;15283617;19;20014;-64
2023/12/12 16:19:59;;;;;;;8.50;2.90;;;;;;;7.49;100.00;97257.28;15282004;19;20021;-64
2023/12/12 16:25:26;;;;;;;11.88;2.72;;;;;;;7.47;100.00;97257.44;15280119;19;20022;-64
2023/12/12 16:30:52;;;;;;;11.10;3.10;;;;;;;7.46;100.00;97249.59;15286601;19;20011;-64
2023/12/12 16:36:21;;;;;;;10.88;3.05;;;;;;;7.47;100.00;97241.38;15284693;19;20545;-62
2023/12/12 16:41:48;;;;;;;9.67;2.90;;;;;;;7.49;100.00;97223.28;15289344;19;20046;-63
2023/12/12 16:47:14;;;;;;;13.75;2.92;;;;;;;7.48;100.00;97210.03;15282578;19;20018;-64
2023/12/12 16:52:41;;;;;;;10.25;2.83;;;;;;;7.48;100.00;97221.63;15287763;19;20629;-64
2023/12/12 16:58:07;;;;;;;11.88;3.00;;;;;;;7.48;100.00;97210.03;15284895;19;20478;-64
2023/12/12 17:03:31;;;;;;;11.85;2.63;;;;;;;7.48;100.00;97204.69;15286089;19;20022;-64
2023/12/12 17:08:58;;;;;;;9.18;2.60;;;;;;;7.47;100.00;97208.38;15282905;19;20014;-63
2023/12/12 17:14:24;;;;;;;10.73;2.72;;;;;;;7.47;100.00;97203.00;15287755;19;20019;-64
2023/12/12 17:19:49;;;;;;;10.82;2.40;;;;;;;7.46;100.00;97187.97;15279031;19;20018;-64
2023/12/12 17:25:17;;;;;;;10.00;2.65;;;;;;;7.42;100.00;97174.06;15285000;19;20480;-65
2023/12/12 17:30:42;;;;;;;11.60;2.83;;;;;;;7.42;100.00;97183.94;15285163;19;20024;-65
2023/12/12 17:36:06;;;;;;;8.60;2.78;;;;;;;7.40;100.00;97179.59;15281062;19;20036;-65
2023/12/12 17:41:40;;;;;;;11.90;2.85;;;;;;;7.38;100.00;97165.53;15285800;19;20017;-65
2023/12/12 17:47:06;;;;;;;10.30;2.65;;;;;;;7.35;100.00;97155.16;15282448;19;20014;-64
2023/12/12 17:52:30;;;;;;;11.55;3.03;;;;;;;7.35;100.00;97151.66;15276861;19;20026;-64
2023/12/12 17:57:57;;;;;;;10.90;3.00;;;;;;;7.33;100.00;97154.50;15281602;19;20015;-64
2023/12/12 18:03:22;;;;;;;13.75;3.08;;;;;;;7.33;100.00;97148.31;15288676;19;20081;-63
2023/12/12 18:08:47;;;;;;;8.50;2.65;;;;;;;7.33;100.00;97137.59;15297218;19;20014;-64
2023/12/12 18:14:15;;;;;;;13.20;2.80;;;;;;;7.33;100.00;97141.13;15299424;19;20017;-65
2023/12/12 18:19:40;;;;;;;10.40;2.47;;;;;;;7.32;100.00;97135.91;15294421;19;20014;-64
2023/12/12 18:25:05;;;;;;;9.50;2.50;;;;;;;7.30;100.00;97144.13;15290834;19;20074;-65
2023/12/12 18:30:36;;;;;;;11.52;2.80;;;;;;;7.30;100.00;97149.50;15290264;19;20022;-64
2023/12/12 18:36:01;;;;;;;10.77;2.97;;;;;;;7.29;100.00;97147.81;15296240;19;20090;-64
2023/12/12 18:41:32;;;;;;;8.93;2.60;;;;;;;7.30;100.00;97137.91;15291030;19;20011;-65
2023/12/12 18:47:00;;;;;;;11.07;2.70;;;;;;;7.30;100.00;97122.69;15294407;19;20029;-63
2023/12/12 18:52:25;;;;;;;9.23;2.63;;;;;;;7.27;100.00;97117.69;15298511;19;20014;-64
2023/12/12 18:57:50;;;;;;;8.45;2.55;;;;;;;7.24;100.00;97108.16;15289020;19;20416;-64
2023/12/12 19:03:18;;;;;;;10.35;3.00;;;;;;;7.18;100.00;97106.16;15294672;19;20594;-62
2023/12/12 19:08:45;;;;;;;8.60;2.85;;;;;;;7.15;100.00;97102.97;15294019;19;20352;-64
2023/12/12 19:14:09;;;;;;;9.88;2.80;;;;;;;7.13;100.00;97105.84;15288715;19;20019;-64
2023/12/12 19:19:36;;;;;;;10.02;3.10;;;;;;;7.11;100.00;97101.69;15290000;19;20033;-64
2023/12/12 19:25:01;;;;;;;9.18;2.53;;;;;;;7.08;100.00;97094.81;15294301;19;20070;-64
2023/12/12 19:30:26;;;;;;;9.57;2.63;;;;;;;7.07;100.00;97071.69;15282814;19;20025;-65
2023/12/12 19:35:53;;;;;;;7.93;2.70;;;;;;;7.06;100.00;97065.53;15294661;19;20025;-65
2023/12/12 19:41:24;;;;;;;9.00;3.08;;;;;;;7.04;100.00;97061.34;15290616;19;20097;-65
2023/12/12 19:46:49;;;;;;;9.60;2.90;;;;;;;7.05;100.00;97066.53;15268125;19;20017;-65
2023/12/12 19:52:18;;;;;;;10.25;2.78;;;;;;;7.07;100.00;97053.81;15291689;19;20426;-65
2023/12/12 19:57:43;;;;;;;8.15;2.60;;;;;;;7.08;100.00;97055.47;15289126;19;20089;-63
2023/12/12 20:03:07;;;;;;;10.07;2.92;;;;;;;7.09;100.00;97045.59;15283796;19;20479;-62
2023/12/12 20:08:35;;;;;;;6.40;2.30;;;;;;;7.13;100.00;97056.78;15287683;19;20025;-63
2023/12/12 20:13:59;;;;;;;4.40;2.10;;;;;;;7.17;100.00;97055.44;15283502;19;20019;-60
2023/12/12 20:19:24;;;;;;;6.60;2.42;;;;;;;7.21;100.00;97071.00;15285183;19;20538;-60
2023/12/12 20:24:51;;;;;;;4.88;2.40;;;;;;;7.26;100.00;97062.44;15288910;19;20073;-60
2023/12/12 20:30:17;;;;;;;4.80;2.30;;;;;;;7.31;100.00;97073.47;15286737;19;20411;-59
2023/12/12 20:35:41;;;;;;;5.68;2.10;;;;;;;7.35;100.00;97066.75;15287320;19;20015;-59
2023/12/12 20:41:15;;;;;;;5.20;2.40;;;;;;;7.37;100.00;97069.25;15280532;19;20029;-59
2023/12/12 20:46:41;;;;;;;4.10;2.10;;;;;;;7.40;100.00;97075.09;15284963;19;20503;-58
2023/12/12 20:52:06;;;;;;;6.05;2.55;;;;;;;7.40;100.00;97060.88;15289172;19;20078;-56
2023/12/12 20:57:34;;;;;;;3.70;2.05;;;;;;;7.43;100.00;97040.94;15288251;19;20102;-58
2023/12/12 21:02:58;;;;;;;4.60;2.30;;;;;;;7.42;100.00;97020.50;15285520;19;20817;-58
2023/12/12 21:08:23;;;;;;;5.25;2.17;;;;;;;7.39;100.00;97019.84;15280494;19;20029;-58
2023/12/12 21:13:50;;;;;;;4.97;2.40;;;;;;;7.36;100.00;97005.97;15288055;19;20042;-63
2023/12/12 21:19:15;;;;;;;7.63;2.80;;;;;;;7.33;100.00;97011.66;15286225;19;20351;-63
2023/12/12 21:24:40;;;;;;;3.92;2.40;;;;;;;7.30;100.00;96994.13;15288445;19;20082;-63
2023/12/12 21:30:10;;;;;;;3.92;2.35;;;;;;;7.31;100.00;96985.06;15284319;19;20021;-63
2023/12/12 21:35:34;;;;;;;4.63;2.50;;;;;;;7.33;100.00;96988.41;15280980;19;20006;-64
2023/12/12 21:41:07;;;;;;;3.25;2.40;;;;;;;7.31;100.00;96981.53;15289509;19;20018;-62
2023/12/12 21:46:28;;;;;;;3.38;2.58;;;;;;;7.32;100.00;96970.66;15296731;19;20077;-61
2023/12/12 21:51:53;;;;;;;3.33;2.60;;;;;;;7.33;100.00;96961.63;15306416;19;20017;-61
2023/12/12 21:57:17;;;;;;;3.05;2.42;;;;;;;7.38;100.00;96961.09;15351425;19;20014;-63
2023/12/12 22:02:46;;;;;;;3.53;2.85;;;;;;;7.39;100.00;96966.25;15287715;19;20895;-63
2023/12/12 22:08:11;;;;;;;2.85;2.65;;;;;;;7.42;100.00;96958.88;15287334;19;20018;-62
2023/12/12 22:13:36;;;;;;;3.50;2.90;;;;;;;7.43;100.00;96961.38;15297401;19;20845;-64
2023/12/12 22:19:03;;;;;;;3.20;2.90;;;;;;;7.44;100.00;96968.41;15294031;19;20017;-62
2023/12/12 22:24:28;;;;;;;3.40;3.10;;;;;;;7.49;100.00;96965.19;15294419;19;20037;-62
2023/12/12 22:29:52;;;;;;;3.40;3.10;;;;;;;7.51;100.00;96973.88;15288757;19;20018;-63
2023/12/12 22:35:20;;;;;;;3.78;3.47;;;;;;;7.54;100.00;96968.19;15293128;19;20426;-63
2023/12/12 22:40:52;;;;;;;3.67;3.38;;;;;;;7.56;100.00;96966.16;15287458;19;20014;-63
2023/12/12 22:46:21;;;;;;;3.50;3.20;;;;;;;7.57;100.00;96978.56;15295183;19;20094;-62
2023/12/12 22:51:48;;;;;;;3.40;3.13;;;;;;;7.60;100.00;96972.00;15293624;19;20090;-63
2023/12/12 22:57:13;;;;;;;4.10;3.50;;;;;;;7.59;100.00;96973.81;15295278;19;20034;-62
2023/12/12 23:02:37;;;;;;;4.03;3.50;;;;;;;7.59;100.00;96957.75;15292382;19;20035;-63
2023/12/12 23:08:07;;;;;;;4.00;3.50;;;;;;;7.63;100.00;96950.22;15295871;19;20018;-62
2023/12/12 23:13:31;;;;;;;4.10;3.70;;;;;;;7.65;100.00;96943.66;15291011;19;20018;-61
2023/12/12 23:18:56;;;;;;;4.22;3.83;;;;;;;7.69;100.00;96949.47;15292684;19;20045;-64
2023/12/12 23:24:24;;;;;;;4.00;3.70;;;;;;;7.71;100.00;96942.91;15295970;19;20023;-62
2023/12/12 23:29:49;;;;;;;4.00;3.60;;;;;;;7.74;100.00;96935.53;15291473;19;20014;-63
2023/12/12 23:35:14;;;;;;;4.20;3.80;;;;;;;7.76;100.00;96928.16;15294160;19;20019;-61
2023/12/12 23:40:42;;;;;;;4.47;4.07;;;;;;;7.76;100.00;96918.25;15289962;19;20017;-63
2023/12/12 23:46:08;;;;;;;4.88;4.47;;;;;;;7.78;100.00;96910.88;15289466;19;20014;-63
2023/12/12 23:51:34;;;;;;;5.38;4.88;;;;;;;7.78;100.00;96904.69;15294283;19;20015;-62
2023/12/12 23:57:01;;;;;;;5.47;4.97;;;;;;;7.78;100.00;96896.63;15292261;19;20029;-63
